createdAt,value
2022-11-21T00:01:48.641Z,99372.65
2022-11-21T00:03:53.030Z,99370.64
2022-11-21T00:05:57.438Z,99366.27
2022-11-21T00:08:01.756Z,99364.22
2022-11-21T00:10:06.087Z,99363.14
2022-11-21T00:12:10.400Z,99358.94
2022-11-21T00:14:14.685Z,99360.51
2022-11-21T00:16:18.977Z,99355.02
2022-11-21T00:18:23.311Z,99350.03
2022-11-21T00:20:27.613Z,99355.61
2022-11-21T00:22:31.925Z,99363.19
2022-11-21T00:24:36.214Z,99359.63
2022-11-21T00:26:40.499Z,99358.14
2022-11-21T00:28:44.783Z,99354.78
2022-11-21T00:30:49.082Z,99355.05
2022-11-21T00:32:53.369Z,99352.45
2022-11-21T00:34:57.680Z,99355.91
2022-11-21T00:37:01.966Z,99349.42
2022-11-21T00:39:06.284Z,99343.44
2022-11-21T00:41:10.591Z,99343.68
2022-11-21T00:43:14.890Z,99342.41
2022-11-21T00:45:25.109Z,99337.33
2022-11-21T00:47:29.440Z,99337.17
2022-11-21T00:49:33.746Z,99340.27
2022-11-21T00:51:38.111Z,99344.94
2022-11-21T00:53:42.415Z,99339.23
2022-11-21T00:55:46.694Z,99345.94
2022-11-21T00:57:51.029Z,99344.46
2022-11-21T00:59:55.335Z,99339.98
2022-11-21T01:01:59.672Z,99333.58
2022-11-21T01:04:04.025Z,99322.53
2022-11-21T01:06:08.351Z,99322.22
2022-11-21T01:08:12.645Z,99318.86
2022-11-21T01:10:16.944Z,99306.33
2022-11-21T01:12:21.279Z,99299.61
2022-11-21T01:14:26.327Z,99301.61
2022-11-21T01:16:31.160Z,99303.78
2022-11-21T01:18:35.459Z,99306.07
2022-11-21T01:20:39.763Z,99307.44
2022-11-21T01:22:44.076Z,99305.8
2022-11-21T01:24:48.458Z,99303.17
2022-11-21T01:26:52.784Z,99295.02
2022-11-21T01:28:57.086Z,99295.23
2022-11-21T01:31:01.371Z,99294.89
2022-11-21T01:33:05.688Z,99291.55
2022-11-21T01:35:09.999Z,99289
2022-11-21T01:37:14.325Z,99284.69
2022-11-21T01:39:18.644Z,99281.9
2022-11-21T01:41:22.972Z,99278.55
2022-11-21T01:43:27.264Z,99271.45
2022-11-21T01:45:31.564Z,99268.41
2022-11-21T01:47:35.896Z,99267.54
2022-11-21T01:49:40.196Z,99267.86
2022-11-21T01:51:44.498Z,99275.16
2022-11-21T01:53:48.827Z,99266.97
2022-11-21T01:55:53.141Z,99260.02
2022-11-21T01:57:57.455Z,99253.8
2022-11-21T02:00:01.862Z,99251.21
2022-11-21T02:02:06.185Z,99251.34
2022-11-21T02:04:10.499Z,99251.09
2022-11-21T02:06:14.805Z,99243.48
2022-11-21T02:08:19.116Z,99244.13
2022-11-21T02:10:23.417Z,99249.45
2022-11-21T02:12:28.014Z,99257.39
2022-11-21T02:14:32.327Z,99253.06
2022-11-21T02:16:36.627Z,99253.98
2022-11-21T02:18:40.996Z,99246.95
2022-11-21T02:20:45.330Z,99238.89
2022-11-21T02:22:49.630Z,99240.09
2022-11-21T02:24:53.919Z,99227.88
2022-11-21T02:26:58.216Z,99227.35
2022-11-21T02:29:02.532Z,99227.67
2022-11-21T02:31:06.889Z,99224.5
2022-11-21T02:33:11.212Z,99214.52
2022-11-21T02:35:15.531Z,99212.69
2022-11-21T02:37:19.868Z,99208.3
2022-11-21T02:39:24.186Z,99203.87
2022-11-21T02:41:28.488Z,99197.81
2022-11-21T02:43:32.775Z,99192.1
2022-11-21T02:45:37.098Z,99196.05
2022-11-21T02:47:41.380Z,99198.67
2022-11-21T02:49:45.661Z,99192.19
2022-11-21T02:51:49.972Z,99190.83
2022-11-21T02:53:54.409Z,99187.23
2022-11-21T02:55:58.851Z,99188.47
2022-11-21T02:58:06.200Z,99180.82
2022-11-21T03:00:10.470Z,99182.39
2022-11-21T03:02:17.028Z,99172.91
2022-11-21T03:04:21.328Z,99163.45
2022-11-21T03:06:25.665Z,99159.31
2022-11-21T03:08:29.982Z,99160.05
2022-11-21T03:10:34.262Z,99159.02
2022-11-21T03:12:38.525Z,99156.3
2022-11-21T03:14:42.932Z,99153.42
2022-11-21T03:16:47.236Z,99152.45
2022-11-21T03:18:51.541Z,99146.61
2022-11-21T03:20:55.815Z,99143.61
2022-11-21T03:23:00.097Z,99137.02
2022-11-21T03:25:04.422Z,99130.52
2022-11-21T03:27:08.701Z,99127.77
2022-11-21T03:29:13.039Z,99127.66
2022-11-21T03:31:17.379Z,99127.52
2022-11-21T03:33:21.639Z,99124.63
2022-11-21T03:35:25.897Z,99119.02
2022-11-21T03:37:30.165Z,99112.75
2022-11-21T03:39:34.570Z,99106.48
2022-11-21T03:41:38.849Z,99096.32
2022-11-21T03:43:43.148Z,99087.15
2022-11-21T03:45:47.467Z,99084.58
2022-11-21T03:47:51.792Z,99086.72
2022-11-21T03:49:56.081Z,99087.02
2022-11-21T03:52:00.385Z,99079.84
2022-11-21T03:54:04.679Z,99072.61
2022-11-21T03:56:08.947Z,99073.11
2022-11-21T03:58:13.261Z,99071.3
2022-11-21T04:00:17.553Z,99066.06
2022-11-21T04:02:21.850Z,99071.61
2022-11-21T04:04:26.935Z,99071.55
2022-11-21T04:06:31.796Z,99069.58
2022-11-21T04:08:36.088Z,99069.43
2022-11-21T04:10:40.393Z,99066.34
2022-11-21T04:12:44.712Z,99061.42
2022-11-21T04:14:49.000Z,99060.95
2022-11-21T04:16:53.302Z,99059.68
2022-11-21T04:18:57.628Z,99053.63
2022-11-21T04:21:01.919Z,99057.65
2022-11-21T04:23:06.236Z,99051.77
2022-11-21T04:25:10.512Z,99042.27
2022-11-21T04:27:14.814Z,99042.56
2022-11-21T04:29:19.143Z,99030.77
2022-11-21T04:31:23.435Z,99020.84
2022-11-21T04:33:27.768Z,99025.03
2022-11-21T04:35:32.035Z,99019.87
2022-11-21T04:37:36.360Z,99022.42
2022-11-21T04:39:40.649Z,99019.08
2022-11-21T04:41:44.925Z,99014.26
2022-11-21T04:43:49.234Z,99009.86
2022-11-21T04:45:53.587Z,99012.34
2022-11-21T04:47:57.913Z,99007.82
2022-11-21T04:50:02.209Z,99011.55
2022-11-21T04:52:06.503Z,99010.8
2022-11-21T04:54:10.822Z,99010.23
2022-11-21T04:56:15.113Z,99010.97
2022-11-21T04:58:19.442Z,99012.16
2022-11-21T05:00:25.653Z,99005.02
2022-11-21T05:02:29.977Z,99000.08
2022-11-21T05:04:34.303Z,98998.25
2022-11-21T05:06:38.584Z,98992.42
2022-11-21T05:08:44.819Z,98987.25
2022-11-21T05:10:56.082Z,98991.79
2022-11-21T05:13:00.376Z,98992.41
2022-11-21T05:15:04.698Z,98989.41
2022-11-21T05:17:08.995Z,98986.5
2022-11-21T05:19:13.302Z,98975.48
2022-11-21T05:21:17.585Z,98979.69
2022-11-21T05:23:21.872Z,98975.33
2022-11-21T05:25:26.181Z,98972.08
2022-11-21T05:27:30.474Z,98971.57
2022-11-21T05:29:34.813Z,98962.91
2022-11-21T05:31:39.064Z,98958.77
2022-11-21T05:33:43.440Z,98953.39
2022-11-21T05:35:47.747Z,98948.02
2022-11-21T05:37:52.041Z,98943.94
2022-11-21T05:39:56.369Z,98946.54
2022-11-21T05:42:04.183Z,98947.9
2022-11-21T05:44:08.609Z,98945.81
2022-11-21T05:46:12.936Z,98939
2022-11-21T05:48:17.295Z,98935.52
2022-11-21T05:50:21.645Z,98931.67
2022-11-21T05:52:26.032Z,98928.53
2022-11-21T05:54:30.939Z,98930.55
2022-11-21T05:56:35.356Z,98931.44
2022-11-21T05:58:39.652Z,98929.72
2022-11-21T06:00:43.954Z,98926.36
2022-11-21T06:02:48.424Z,98924.81
2022-11-21T06:04:52.792Z,98920.63
2022-11-21T06:06:57.110Z,98922.71
2022-11-21T06:09:01.417Z,98924.43
2022-11-21T06:11:05.724Z,98920.5
2022-11-21T06:13:10.074Z,98914.7
2022-11-21T06:15:14.381Z,98911.86
2022-11-21T06:17:18.680Z,98917.1
2022-11-21T06:19:23.003Z,98912.66
2022-11-21T06:21:27.308Z,98910.3
2022-11-21T06:23:31.715Z,98902.52
2022-11-21T06:25:36.075Z,98898.92
2022-11-21T06:27:40.404Z,98896.83
2022-11-21T06:29:44.682Z,98900.94
2022-11-21T06:31:49.063Z,98894.58
2022-11-21T06:33:53.357Z,98897
2022-11-21T06:35:57.639Z,98899.59
2022-11-21T06:38:01.954Z,98907.11
2022-11-21T06:40:06.286Z,98904.08
2022-11-21T06:42:10.571Z,98902.42
2022-11-21T06:44:14.847Z,98905
2022-11-21T06:46:19.162Z,98902.03
2022-11-21T06:48:23.450Z,98902.57
2022-11-21T06:50:27.773Z,98901.32
2022-11-21T06:52:32.121Z,98898.09
2022-11-21T06:54:36.415Z,98898.53
2022-11-21T06:56:40.727Z,98900.06
2022-11-21T06:58:45.021Z,98906.75
2022-11-21T07:00:49.342Z,98906.4
2022-11-21T07:02:55.635Z,98907.08
2022-11-21T07:05:06.388Z,98901.55
2022-11-21T07:07:10.839Z,98902.63
2022-11-21T07:09:45.320Z,98907.21
2022-11-21T07:11:50.108Z,98908.74
2022-11-21T07:13:54.405Z,98910.89
2022-11-21T07:15:58.719Z,98903.07
2022-11-21T07:18:03.069Z,98906.21
2022-11-21T07:20:07.397Z,98903.83
2022-11-21T07:22:11.830Z,98901.45
2022-11-21T07:24:16.109Z,98902.41
2022-11-21T07:26:20.422Z,98903.64
2022-11-21T07:28:24.721Z,98903.75
2022-11-21T07:30:29.173Z,98905.81
2022-11-21T07:32:33.511Z,98905.88
2022-11-21T07:34:37.847Z,98903.76
2022-11-21T07:36:42.168Z,98901.88
2022-11-21T07:38:46.483Z,98903.76
2022-11-21T07:40:50.787Z,98904.91
2022-11-21T07:42:55.138Z,98900.02
2022-11-21T07:44:59.505Z,98904.23
2022-11-21T07:47:03.841Z,98897.45
2022-11-21T07:49:08.160Z,98894
2022-11-21T07:51:12.491Z,98899.6
2022-11-21T07:53:16.819Z,98892.31
2022-11-21T07:55:21.129Z,98891.19
2022-11-21T07:57:25.651Z,98890.09
2022-11-21T07:59:30.591Z,98889.66
2022-11-21T08:01:35.143Z,98891.97
2022-11-21T08:03:42.575Z,98891.59
2022-11-21T08:05:46.894Z,98894.8
2022-11-21T08:07:51.214Z,98885.8
2022-11-21T08:09:55.559Z,98888.01
2022-11-21T08:11:59.867Z,98886.91
2022-11-21T08:14:04.153Z,98888.56
2022-11-21T08:16:08.480Z,98894.33
2022-11-21T08:18:12.842Z,98892.67
2022-11-21T08:20:17.141Z,98887.88
2022-11-21T08:22:21.475Z,98894.29
2022-11-21T08:24:25.796Z,98889.04
2022-11-21T08:26:30.081Z,98891.76
2022-11-21T08:28:34.431Z,98894.04
2022-11-21T08:30:38.762Z,98897.27
2022-11-21T08:32:43.105Z,98899.32
2022-11-21T08:34:47.417Z,98899.38
2022-11-21T08:36:51.713Z,98896.41
2022-11-21T08:38:56.092Z,98896.83
2022-11-21T08:41:00.440Z,98898.28
2022-11-21T08:43:04.774Z,98897.85
2022-11-21T08:45:09.127Z,98899.34
2022-11-21T08:47:13.452Z,98904.63
2022-11-21T08:49:17.786Z,98898.91
2022-11-21T08:51:22.109Z,98903.91
2022-11-21T08:53:26.414Z,98904.03
2022-11-21T08:55:30.830Z,98902.39
2022-11-21T08:57:35.147Z,98898.42
2022-11-21T08:59:39.520Z,98899.44
2022-11-21T09:01:44.025Z,98906.25
2022-11-21T09:03:48.564Z,98910.55
2022-11-21T09:05:52.845Z,98910.53
2022-11-21T09:07:57.173Z,98909.34
2022-11-21T09:10:01.517Z,98908.83
2022-11-21T09:12:05.829Z,98909.48
2022-11-21T09:14:10.165Z,98913.87
2022-11-21T09:16:21.131Z,98912.21
2022-11-21T09:18:25.438Z,98915.08
2022-11-21T09:20:29.905Z,98911.66
2022-11-21T09:22:34.314Z,98913.88
2022-11-21T09:24:38.616Z,98914.78
2022-11-21T09:26:42.983Z,98920.09
2022-11-21T09:28:48.139Z,98914.36
2022-11-21T09:30:52.489Z,98916
2022-11-21T09:32:56.816Z,98913.66
2022-11-21T09:35:01.180Z,98914.67
2022-11-21T09:37:05.556Z,98915.47
2022-11-21T09:39:09.948Z,98913.01
2022-11-21T09:41:14.268Z,98916.69
2022-11-21T09:43:18.581Z,98917.1
2022-11-21T09:45:22.951Z,98919.08
2022-11-21T09:47:27.325Z,98921.8
2022-11-21T09:49:31.981Z,98918.53
2022-11-21T09:51:36.348Z,98912.86
2022-11-21T09:53:40.717Z,98919.25
2022-11-21T09:55:45.034Z,98914.21
2022-11-21T09:57:50.840Z,98920.04
2022-11-21T09:59:55.157Z,98914.43
2022-11-21T10:01:59.505Z,98913.75
2022-11-21T10:04:03.899Z,98915.47
2022-11-21T10:06:08.348Z,98915.19
2022-11-21T10:08:12.652Z,98910.64
2022-11-21T10:10:17.005Z,98910.79
2022-11-21T10:12:21.332Z,98908.69
2022-11-21T10:14:25.955Z,98908.8
2022-11-21T10:16:30.857Z,98905.56
2022-11-21T10:18:35.251Z,98903.25
2022-11-21T10:20:39.598Z,98900.94
2022-11-21T10:22:43.967Z,98901.84
2022-11-21T10:24:48.316Z,98904.75
2022-11-21T10:26:52.651Z,98903.67
2022-11-21T10:28:56.964Z,98905.83
2022-11-21T10:31:01.298Z,98905.66
2022-11-21T10:33:05.641Z,98910.57
2022-11-21T10:35:09.963Z,98909.06
2022-11-21T10:37:14.292Z,98911.78
2022-11-21T10:39:18.616Z,98914.41
2022-11-21T10:41:22.920Z,98913.69
2022-11-21T10:43:27.306Z,98911.47
2022-11-21T10:45:31.641Z,98911.69
2022-11-21T10:47:36.020Z,98913.1
2022-11-21T10:49:41.534Z,98911.13
2022-11-21T10:51:47.133Z,98915.45
2022-11-21T10:53:51.641Z,98912.41
2022-11-21T10:55:55.949Z,98911.56
2022-11-21T10:58:00.298Z,98908.61
2022-11-21T11:00:04.620Z,98911
2022-11-21T11:02:08.955Z,98911
2022-11-21T11:04:35.636Z,98912.3
2022-11-21T11:06:50.894Z,98912.31
2022-11-21T11:08:55.213Z,98911.58
2022-11-21T11:10:59.531Z,98905.39
2022-11-21T11:13:38.570Z,98910.71
2022-11-21T11:15:50.810Z,98912.3
2022-11-21T11:17:55.201Z,98911.13
2022-11-21T11:19:59.618Z,98911.83
2022-11-21T11:22:03.953Z,98916.35
2022-11-21T11:24:08.308Z,98918.2
2022-11-21T11:26:12.727Z,98922.27
2022-11-21T11:28:17.018Z,98917.64
2022-11-21T11:30:21.367Z,98923.16
2022-11-21T11:32:25.720Z,98923.55
2022-11-21T11:34:30.051Z,98924.73
2022-11-21T11:36:34.369Z,98928.52
2022-11-21T11:38:38.682Z,98933.26
2022-11-21T11:40:42.979Z,98931.91
2022-11-21T11:42:48.262Z,98937.01
2022-11-21T11:44:52.552Z,98937.13
2022-11-21T11:46:56.861Z,98938.17
2022-11-21T11:49:31.312Z,98936.52
2022-11-21T11:51:35.616Z,98931.03
2022-11-21T11:53:39.924Z,98935.38
2022-11-21T11:55:44.276Z,98939.02
2022-11-21T11:57:48.584Z,98942.61
2022-11-21T11:59:52.932Z,98941.25
2022-11-21T12:01:57.357Z,98942.58
2022-11-21T12:04:01.893Z,98948.67
2022-11-21T12:06:10.445Z,98947.05
2022-11-21T12:08:43.108Z,98954.7
2022-11-21T12:10:47.714Z,98958.38
2022-11-21T12:12:52.015Z,98963.17
2022-11-21T12:14:56.367Z,98968.06
2022-11-21T12:17:00.672Z,98976.16
2022-11-21T12:19:04.997Z,98977.64
2022-11-21T12:21:09.322Z,98976.64
2022-11-21T12:23:13.640Z,98980.71
2022-11-21T12:25:18.050Z,98984.11
2022-11-21T12:27:22.374Z,98992.36
2022-11-21T12:29:27.425Z,98991.43
2022-11-21T12:31:32.521Z,98995.89
2022-11-21T12:33:36.808Z,98998.06
2022-11-21T12:35:41.110Z,98999.55
2022-11-21T12:37:45.436Z,98998.73
2022-11-21T12:39:50.587Z,98996.62
2022-11-21T12:41:54.927Z,98997.19
2022-11-21T12:43:59.255Z,99001.02
2022-11-21T12:46:03.582Z,99010.23
2022-11-21T12:48:07.950Z,99011.88
2022-11-21T12:50:12.632Z,99014.15
2022-11-21T12:52:17.035Z,99019.79
2022-11-21T12:54:21.378Z,99015.66
2022-11-21T12:56:25.747Z,99020.1
2022-11-21T12:58:30.126Z,99018.63
2022-11-21T13:00:34.458Z,99015.3
2022-11-21T13:02:38.756Z,99019.25
2022-11-21T13:04:43.130Z,99021.82
2022-11-21T13:06:48.185Z,99020.45
2022-11-21T13:08:52.713Z,99019.91
2022-11-21T13:10:57.071Z,99024.49
2022-11-21T13:13:01.417Z,99025.69
2022-11-21T13:15:05.753Z,99024.84
2022-11-21T13:17:10.124Z,99031.03
2022-11-21T13:19:14.474Z,99030.95
2022-11-21T13:21:18.801Z,99034.45
2022-11-21T13:23:23.146Z,99034.66
2022-11-21T13:25:27.478Z,99038.27
2022-11-21T13:27:39.553Z,99037.77
2022-11-21T13:29:44.008Z,99038.77
2022-11-21T13:31:49.162Z,99047.91
2022-11-21T13:33:53.462Z,99046.27
2022-11-21T13:35:57.778Z,99055.45
2022-11-21T13:38:02.093Z,99057.22
2022-11-21T13:40:06.395Z,99053.5
2022-11-21T13:42:11.486Z,99057.84
2022-11-21T13:44:23.491Z,99060.98
2022-11-21T13:46:27.902Z,99069.17
2022-11-21T13:48:32.241Z,99075.4
2022-11-21T13:50:36.627Z,99076.17
2022-11-21T13:52:40.986Z,99079.06
2022-11-21T13:54:45.351Z,99078.89
2022-11-21T13:56:50.607Z,99083.31
2022-11-21T13:58:54.905Z,99089.6
2022-11-21T14:00:59.601Z,99094.09
2022-11-21T14:03:04.766Z,99094.45
2022-11-21T14:05:09.085Z,99099.72
2022-11-21T14:07:13.955Z,99096.08
2022-11-21T14:09:18.595Z,99101.23
2022-11-21T14:11:22.952Z,99101.7
2022-11-21T14:13:27.250Z,99103.84
2022-11-21T14:15:31.594Z,99103.3
2022-11-21T14:17:35.999Z,99105.34
2022-11-21T14:19:40.585Z,99110.09
2022-11-21T14:21:44.859Z,99102.95
2022-11-21T14:23:49.316Z,99105.59
2022-11-21T14:25:53.682Z,99105.88
2022-11-21T14:27:58.260Z,99108.48
2022-11-21T14:30:02.576Z,99112.61
2022-11-21T14:32:06.965Z,99115.66
2022-11-21T14:34:11.284Z,99120.5
2022-11-21T14:36:15.603Z,99124.98
2022-11-21T14:38:19.951Z,99129.03
2022-11-21T14:40:24.302Z,99133.02
2022-11-21T14:42:29.622Z,99131.63
2022-11-21T14:44:33.993Z,99131.7
2022-11-21T14:46:38.336Z,99132.51
2022-11-21T14:48:42.741Z,99134.9
2022-11-21T14:50:47.156Z,99139.73
2022-11-21T14:52:51.487Z,99143.84
2022-11-21T14:55:30.495Z,99146.13
2022-11-21T14:57:35.675Z,99148.77
2022-11-21T14:59:40.012Z,99148.58
2022-11-21T15:01:49.331Z,99144.39
2022-11-21T15:03:53.888Z,99144.16
2022-11-21T15:06:08.833Z,99144.45
2022-11-21T15:09:28.936Z,99137.2
2022-11-21T15:12:07.645Z,99135.49
2022-11-21T15:14:17.780Z,99137.44
2022-11-21T15:16:22.268Z,99142.83
2022-11-21T15:18:29.333Z,99145.18
2022-11-21T15:20:33.673Z,99150.39
2022-11-21T15:22:38.016Z,99145.56
2022-11-21T15:24:42.414Z,99151.52
2022-11-21T15:26:48.458Z,99162.25
2022-11-21T15:28:52.819Z,99169.55
2022-11-21T15:30:57.147Z,99163.06
2022-11-21T15:33:02.465Z,99159.61
2022-11-21T15:35:06.740Z,99166.61
2022-11-21T15:37:11.106Z,99163.58
2022-11-21T15:39:15.457Z,99163.13
2022-11-21T15:41:19.773Z,99166.06
2022-11-21T15:43:24.146Z,99166.26
2022-11-21T15:45:28.528Z,99163.94
2022-11-21T15:47:32.815Z,99163.09
2022-11-21T15:49:37.175Z,99165.59
2022-11-21T15:52:11.537Z,99166.16
2022-11-21T15:54:16.186Z,99165.89
2022-11-21T15:56:23.991Z,99164.83
2022-11-21T15:58:28.341Z,99163.98
2022-11-21T16:00:32.671Z,99171.94
2022-11-21T16:02:37.090Z,99169.62
2022-11-21T16:04:41.432Z,99170.46
2022-11-21T16:06:46.840Z,99167.99
2022-11-21T16:08:51.270Z,99169.48
2022-11-21T16:10:55.643Z,99166.84
2022-11-21T16:13:01.398Z,99166.09
2022-11-21T16:15:05.773Z,99181
2022-11-21T16:17:10.112Z,99180.66
2022-11-21T16:19:14.420Z,99178.55
2022-11-21T16:21:18.762Z,99175.27
2022-11-21T16:23:23.082Z,99172.08
2022-11-21T16:25:27.435Z,99175.86
2022-11-21T16:27:31.759Z,99171.98
2022-11-21T16:29:36.243Z,99172.3
2022-11-21T16:31:40.556Z,99164.98
2022-11-21T16:33:44.925Z,99165.95
2022-11-21T16:35:50.483Z,99164.5
2022-11-21T16:37:54.791Z,99159.82
2022-11-21T16:39:59.117Z,99153.83
2022-11-21T16:42:03.561Z,99150.26
2022-11-21T16:44:07.931Z,99169.96
2022-11-21T16:46:12.240Z,99160.38
2022-11-21T16:48:16.547Z,99160.1
2022-11-21T16:50:20.861Z,99162.35
2022-11-21T16:52:25.211Z,99164.48
2022-11-21T16:54:29.591Z,99161.06
2022-11-21T16:56:33.949Z,99161.11
2022-11-21T16:58:38.263Z,99158.93
2022-11-21T17:00:42.763Z,99156.22
2022-11-21T17:02:48.182Z,99159.9
2022-11-21T17:04:52.503Z,99163.63
2022-11-21T17:06:56.911Z,99164.59
2022-11-21T17:09:01.265Z,99164.95
2022-11-21T17:11:05.682Z,99166.88
2022-11-21T17:13:10.087Z,99169.91
2022-11-21T17:15:14.398Z,99174.81
2022-11-21T17:17:18.709Z,99175.51
2022-11-21T17:19:23.513Z,99173.38
2022-11-21T17:21:27.817Z,99170.11
2022-11-21T17:23:32.288Z,99169.22
2022-11-21T17:25:36.623Z,99173.41
2022-11-21T17:27:41.105Z,99179.19
2022-11-21T17:29:45.438Z,99179.11
2022-11-21T17:31:49.815Z,99174.65
2022-11-21T17:33:54.115Z,99177.17
2022-11-21T17:35:58.459Z,99180.03
2022-11-21T17:38:02.869Z,99180.49
2022-11-21T17:40:07.184Z,99179.8
2022-11-21T17:42:11.810Z,99178.55
2022-11-21T17:44:16.137Z,99177.91
2022-11-21T17:46:20.462Z,99175.5
2022-11-21T17:48:24.785Z,99180.77
2022-11-21T17:50:29.137Z,99184.13
2022-11-21T17:52:33.478Z,99190.27
2022-11-21T17:54:37.827Z,99192.97
2022-11-21T17:56:53.882Z,99198.47
2022-11-21T17:59:00.942Z,99199.88
2022-11-21T18:01:05.700Z,99199.77
2022-11-21T18:03:10.312Z,99204.96
2022-11-21T18:05:14.628Z,99205.75
2022-11-21T18:07:19.153Z,99202.19
2022-11-21T18:09:23.568Z,99197.16
2022-11-21T18:11:27.868Z,99202.02
2022-11-21T18:13:35.302Z,99200.52
2022-11-21T18:15:39.632Z,99200.98
2022-11-21T18:17:43.939Z,99187.27
2022-11-21T18:19:48.299Z,99182.14
2022-11-21T18:21:52.641Z,99185.89
2022-11-21T18:23:57.009Z,99185.86
2022-11-21T18:26:01.327Z,99189.7
2022-11-21T18:28:05.613Z,99188.14
2022-11-21T18:30:09.955Z,99190.47
2022-11-21T18:32:14.278Z,99187.16
2022-11-21T18:34:18.582Z,99187.66
2022-11-21T18:36:22.883Z,99187.57
2022-11-21T18:38:53.586Z,99186.33
2022-11-21T18:41:08.246Z,99191.44
2022-11-21T18:43:12.683Z,99182.65
2022-11-21T18:45:16.995Z,99183.41
2022-11-21T18:47:22.160Z,99185.43
2022-11-21T18:49:26.648Z,99183.23
2022-11-21T18:51:31.640Z,99182.92
2022-11-21T18:53:35.947Z,99174.39
2022-11-21T18:55:40.465Z,99175.04
2022-11-21T18:57:44.756Z,99170.3
2022-11-21T18:59:50.444Z,99172.42
2022-11-21T19:01:55.238Z,99170.81
2022-11-21T19:03:59.672Z,99168.53
2022-11-21T19:06:03.961Z,99169.96
2022-11-21T19:08:08.247Z,99166.36
2022-11-21T19:10:43.747Z,99168.88
2022-11-21T19:12:48.125Z,99166.63
2022-11-21T19:14:55.393Z,99170.27
2022-11-21T19:16:59.910Z,99167.8
2022-11-21T19:19:36.165Z,99173.02
2022-11-21T19:21:40.744Z,99173.55
2022-11-21T19:23:45.084Z,99180.27
2022-11-21T19:25:49.470Z,99178.09
2022-11-21T19:27:53.796Z,99175.8
2022-11-21T19:29:58.156Z,99168.34
2022-11-21T19:32:02.568Z,99171.86
2022-11-21T19:34:06.897Z,99168.61
2022-11-21T19:36:11.216Z,99171.36
2022-11-21T19:38:15.530Z,99170.75
2022-11-21T19:40:19.862Z,99167.9
2022-11-21T19:42:24.164Z,99180.23
2022-11-21T19:44:28.507Z,99175.72
2022-11-21T19:46:32.860Z,99167.06
2022-11-21T19:48:37.217Z,99164.23
2022-11-21T19:50:50.820Z,99161.65
2022-11-21T19:53:01.672Z,99169.95
2022-11-21T19:55:05.997Z,99171.51
2022-11-21T19:57:15.064Z,99174.61
2022-11-21T19:59:19.354Z,99174.84
2022-11-21T20:01:23.776Z,99170.28
2022-11-21T20:03:28.166Z,99182.44
2022-11-21T20:05:32.522Z,99188.48
2022-11-21T20:07:36.963Z,99186.72
2022-11-21T20:09:41.884Z,99174.45
2022-11-21T20:11:46.208Z,99175.44
2022-11-21T20:13:50.573Z,99178.86
2022-11-21T20:15:54.915Z,99182.08
2022-11-21T20:17:59.279Z,99182.5
2022-11-21T20:20:03.603Z,99185.69
2022-11-21T20:22:07.946Z,99186.63
2022-11-21T20:24:12.242Z,99188.66
2022-11-21T20:26:16.594Z,99190.33
2022-11-21T20:28:20.914Z,99194.89
2022-11-21T20:30:25.245Z,99195.68
2022-11-21T20:32:29.607Z,99196.08
2022-11-21T20:34:33.930Z,99200.77
2022-11-21T20:36:38.276Z,99204.17
2022-11-21T20:38:42.600Z,99201.18
2022-11-21T20:40:50.287Z,99199.22
2022-11-21T20:42:54.600Z,99196.13
2022-11-21T20:46:09.008Z,99190.54
2022-11-21T20:48:22.116Z,99190
2022-11-21T20:54:20.192Z,99183.06
2022-11-21T20:56:24.519Z,99177.8
2022-11-21T20:58:28.866Z,99179.27
2022-11-21T21:00:33.166Z,99181.11
2022-11-21T21:02:37.528Z,99179.23
2022-11-21T21:04:41.906Z,99173.57
2022-11-21T21:06:46.246Z,99174.98
2022-11-21T21:08:50.579Z,99166.32
2022-11-21T21:11:06.943Z,99171.69
2022-11-21T21:13:28.843Z,99165.27
2022-11-21T21:15:33.184Z,99161.55
2022-11-21T21:17:37.630Z,99158.25
2022-11-21T21:19:41.938Z,99150.45
2022-11-21T21:21:46.260Z,99146.98
2022-11-21T21:23:50.577Z,99146.83
2022-11-21T21:25:54.887Z,99143.31
2022-11-21T21:27:59.298Z,99142.36
2022-11-21T21:30:03.966Z,99134.91
2022-11-21T21:32:08.254Z,99133.96
2022-11-21T21:34:12.569Z,99130.67
2022-11-21T21:36:16.896Z,99128.63
2022-11-21T21:38:21.222Z,99131.15
2022-11-21T21:40:25.579Z,99130.09
2022-11-21T21:42:29.896Z,99129.73
2022-11-21T21:44:35.522Z,99127.01
2022-11-21T21:46:40.588Z,99132.03
2022-11-21T21:48:44.933Z,99128.38
2022-11-21T21:50:49.240Z,99121.43
2022-11-21T21:52:53.569Z,99118.67
2022-11-21T21:54:57.898Z,99117.91
2022-11-21T21:57:02.221Z,99115.51
2022-11-21T21:59:06.573Z,99117.18
2022-11-21T22:01:11.073Z,99120.19
2022-11-21T22:03:15.726Z,99118.7
2022-11-21T22:05:20.052Z,99117.89
2022-11-21T22:07:24.503Z,99118.74
2022-11-21T22:09:29.809Z,99111.27
2022-11-21T22:11:34.818Z,99113.36
2022-11-21T22:13:39.123Z,99117.21
2022-11-21T22:15:43.453Z,99109.91
2022-11-21T22:17:47.750Z,99109.89
2022-11-21T22:19:52.053Z,99112.12
2022-11-21T22:21:56.362Z,99110.06
2022-11-21T22:24:30.697Z,99105.42
2022-11-21T22:26:35.028Z,99102.25
2022-11-21T22:28:39.361Z,99099.05
2022-11-21T22:30:43.663Z,99104.27
2022-11-21T22:32:48.008Z,99112.3
2022-11-21T22:34:52.284Z,99115.36
2022-11-21T22:36:56.639Z,99115.55
2022-11-21T22:39:00.932Z,99114.73
2022-11-21T22:41:05.254Z,99116.73
2022-11-21T22:43:12.112Z,99120.88
2022-11-21T22:45:16.422Z,99119.91
2022-11-21T22:47:20.791Z,99115.88
2022-11-21T22:49:25.095Z,99120.93
2022-11-21T22:51:29.864Z,99121.24
2022-11-21T22:53:40.731Z,99121.11
2022-11-21T22:55:45.016Z,99122.2
2022-11-21T22:57:49.386Z,99122.7
2022-11-21T22:59:53.696Z,99125.75
2022-11-21T23:01:58.088Z,99125.81
2022-11-21T23:04:02.532Z,99123.13
2022-11-21T23:06:06.825Z,99119.48
2022-11-21T23:08:11.250Z,99115.7
2022-11-21T23:10:15.592Z,99105.84
2022-11-21T23:12:19.923Z,99104.06
2022-11-21T23:14:24.294Z,99104.17
2022-11-21T23:16:28.573Z,99108.59
2022-11-21T23:18:32.859Z,99116.54
2022-11-21T23:20:37.163Z,99118
2022-11-21T23:22:41.472Z,99119.31
2022-11-21T23:24:45.797Z,99127.51
2022-11-21T23:26:50.105Z,99136.81
2022-11-21T23:28:54.403Z,99148.96
2022-11-21T23:30:58.684Z,99150.6
2022-11-21T23:33:03.002Z,99146.05
2022-11-21T23:35:07.377Z,99135.28
2022-11-21T23:37:11.718Z,99128.88
2022-11-21T23:39:16.283Z,99127.63
2022-11-21T23:41:20.577Z,99129.13
2022-11-21T23:43:24.977Z,99130.19
2022-11-21T23:45:29.281Z,99125.5
2022-11-21T23:47:33.714Z,99122.71
2022-11-21T23:49:38.023Z,99117.05
2022-11-21T23:51:42.414Z,99112.96
2022-11-21T23:53:46.816Z,99111.92
2022-11-21T23:55:51.139Z,99110.11
2022-11-21T23:57:55.417Z,99108.63
2022-11-21T23:59:59.723Z,99106.15
